Time;durP1;ratioP1;P1;durP2;ratioP2;P2;SDS_P1;SDS_P2;PMS_P1;PMS_P2;Temp;Humidity;BMP_temperature;BMP_pressure;BME280_temperature;BME280_humidity;BME280_pressure;Samples;Min_cycle;Max_cycle;Signal;HPM_P1;HPM_P2
2023/02/19 00:01:46;;;;;;;4.70;0.95;;;11.10;94.00;;;;;;4978192;28;20096;-77
2023/02/19 00:04:20;;;;;;;3.42;0.75;;;11.00;94.00;;;;;;4998247;28;22129;-78
2023/02/19 00:06:48;;;;;;;3.53;0.88;;;11.10;93.90;;;;;;4993820;28;20045;-78
2023/02/19 00:09:17;;;;;;;2.25;0.73;;;11.00;94.10;;;;;;4992883;28;20702;-78
2023/02/19 00:11:46;;;;;;;2.83;0.70;;;10.90;94.50;;;;;;4979298;28;20191;-79
2023/02/19 00:14:17;;;;;;;1.75;0.85;;;11.00;94.10;;;;;;4994351;28;20041;-78
2023/02/19 00:16:44;;;;;;;7.10;1.05;;;11.00;94.10;;;;;;5020655;28;20156;-78
2023/02/19 00:19:14;;;;;;;4.05;1.13;;;10.90;94.20;;;;;;4971853;28;20430;-78
2023/02/19 00:21:41;;;;;;;6.47;2.15;;;11.00;94.10;;;;;;4999987;28;20473;-79
2023/02/19 00:24:10;;;;;;;3.08;0.90;;;11.00;94.20;;;;;;4989046;28;20045;-78
2023/02/19 00:26:39;;;;;;;4.68;1.30;;;10.90;94.20;;;;;;4973601;28;20050;-78
2023/02/19 00:29:06;;;;;;;4.65;1.33;;;10.90;94.40;;;;;;4981752;28;20092;-78
2023/02/19 00:31:35;;;;;;;4.35;1.50;;;10.90;94.20;;;;;;5007962;28;20069;-78
2023/02/19 00:34:04;;;;;;;2.97;1.10;;;10.90;94.30;;;;;;4990858;28;20049;-80
2023/02/19 00:36:36;;;;;;;5.28;0.90;;;10.80;94.30;;;;;;4997651;28;20412;-80
2023/02/19 00:39:05;;;;;;;2.78;1.00;;;10.80;94.40;;;;;;4993980;28;21058;-78
2023/02/19 00:41:33;;;;;;;3.47;0.98;;;10.80;94.40;;;;;;4953734;28;20283;-78
2023/02/19 00:44:01;;;;;;;2.30;0.82;;;10.70;94.40;;;;;;4975519;28;20053;-81
2023/02/19 00:46:32;;;;;;;2.80;0.68;;;10.80;94.40;;;;;;5013529;28;20075;-81
2023/02/19 00:49:00;;;;;;;3.33;1.00;;;10.80;94.40;;;;;;5028591;28;20736;-78
2023/02/19 00:51:31;;;;;;;3.55;1.15;;;10.70;94.60;;;;;;5013732;28;20056;-78
2023/02/19 00:53:59;;;;;;;3.00;0.80;;;10.70;94.70;;;;;;4997431;28;20144;-78
2023/02/19 00:56:26;;;;;;;4.70;1.10;;;10.70;94.90;;;;;;4975624;28;20147;-79
2023/02/19 00:58:54;;;;;;;2.70;0.73;;;10.70;94.90;;;;;;4973725;28;20171;-78
2023/02/19 01:01:21;;;;;;;2.58;0.60;;;10.70;94.90;;;;;;4982618;28;20052;-78
2023/02/19 01:03:49;;;;;;;3.90;1.20;;;10.70;95.10;;;;;;5012469;28;20061;-79
2023/02/19 01:06:19;;;;;;;2.13;0.88;;;10.70;95.20;;;;;;5013334;28;20049;-78
2023/02/19 01:08:46;;;;;;;2.40;0.82;;;10.70;95.10;;;;;;5027304;28;20048;-78
2023/02/19 01:11:14;;;;;;;2.53;0.65;;;10.70;95.10;;;;;;5020021;28;20045;-78
2023/02/19 01:13:42;;;;;;;2.40;1.00;;;10.80;95.10;;;;;;5033181;28;20511;-78
2023/02/19 01:16:15;;;;;;;2.63;0.68;;;10.80;95.10;;;;;;5013912;28;22606;-79
2023/02/19 01:18:44;;;;;;;2.50;0.90;;;10.80;95.30;;;;;;5037951;28;20096;-79
2023/02/19 01:21:13;;;;;;;3.38;0.80;;;10.70;95.40;;;;;;5021465;28;20049;-79
2023/02/19 01:23:41;;;;;;;4.45;0.90;;;10.70;95.70;;;;;;5002708;28;20049;-78
2023/02/19 01:26:12;;;;;;;3.72;1.15;;;10.60;96.00;;;;;;4999432;28;20074;-79
2023/02/19 01:28:40;;;;;;;2.38;0.90;;;10.70;95.90;;;;;;4990442;28;20049;-78
2023/02/19 01:31:10;;;;;;;3.70;0.95;;;10.80;95.80;;;;;;5008766;28;20223;-79
2023/02/19 01:33:38;;;;;;;2.28;0.73;;;10.70;95.90;;;;;;4981748;28;20053;-79
2023/02/19 01:36:06;;;;;;;2.35;1.10;;;10.80;95.80;;;;;;4994557;28;20864;-79
2023/02/19 01:38:33;;;;;;;5.65;1.95;;;10.80;95.70;;;;;;4999798;28;20317;-79
2023/02/19 01:41:03;;;;;;;4.95;1.20;;;10.80;96.00;;;;;;4996515;28;20052;-79
2023/02/19 01:43:32;;;;;;;2.92;1.00;;;10.80;96.00;;;;;;5013252;28;20549;-79
2023/02/19 01:46:00;;;;;;;3.50;1.13;;;10.70;96.30;;;;;;5015853;28;20057;-79
2023/02/19 01:48:37;;;;;;;3.58;1.33;;;10.50;96.60;;;;;;4988950;28;20056;-79
2023/02/19 01:51:09;;;;;;;3.80;1.13;;;10.50;96.80;;;;;;5012915;28;20862;-79
2023/02/19 01:53:42;;;;;;;7.40;1.98;;;10.60;96.70;;;;;;5012826;28;21348;-79
2023/02/19 01:56:12;;;;;;;3.50;1.10;;;10.60;96.90;;;;;;5000407;28;21152;-79
2023/02/19 01:58:39;;;;;;;4.80;1.10;;;10.40;97.30;;;;;;4996159;28;20617;-79
2023/02/19 02:01:08;;;;;;;4.65;1.60;;;10.40;97.30;;;;;;5040955;28;20060;-79
2023/02/19 02:03:39;;;;;;;3.20;0.90;;;10.30;97.50;;;;;;5010719;28;20041;-79
2023/02/19 02:06:24;;;;;;;2.95;1.10;;;10.30;97.60;;;;;;5014836;28;20534;-79
2023/02/19 02:11:46;;;;;;;3.20;0.82;;;10.30;97.50;;;;;;5018162;28;20052;-79
2023/02/19 02:14:16;;;;;;;2.35;0.60;;;10.20;97.80;;;;;;5028822;28;20048;-79
2023/02/19 02:17:12;;;;;;;11.15;5.88;;;10.10;98.20;;;;;;5000144;28;20565;-79
2023/02/19 02:19:55;;;;;;;16.83;6.70;;;10.10;98.90;;;;;;5003525;28;20134;-80
2023/02/19 02:22:36;;;;;;;3.28;1.90;;;10.10;98.70;;;;;;4995864;28;20388;-79
2023/02/19 02:25:37;;;;;;;3.75;1.38;;;10.10;99.00;;;;;;5015444;28;20399;-78
2023/02/19 02:28:43;;;;;;;3.00;0.60;;;10.40;98.50;;;;;;5025219;28;23418;-79
2023/02/19 02:31:26;;;;;;;3.58;0.60;;;10.30;98.30;;;;;;5015457;28;20049;-79
2023/02/19 02:34:04;;;;;;;2.67;0.57;;;10.30;98.20;;;;;;5007037;28;20045;-79
2023/02/19 02:36:39;;;;;;;2.05;0.70;;;10.50;97.80;;;;;;5012472;28;20868;-78
2023/02/19 02:39:11;;;;;;;3.08;0.98;;;10.60;97.30;;;;;;5006514;28;20036;-78
2023/02/19 02:41:43;;;;;;;3.33;0.50;;;10.50;97.40;;;;;;5012660;28;20838;-79
2023/02/19 02:44:11;;;;;;;2.78;1.05;;;10.50;97.30;;;;;;5006789;28;20093;-79
2023/02/19 02:46:43;;;;;;;3.20;0.60;;;10.40;97.50;;;;;;4987383;28;22796;-79
2023/02/19 02:49:22;;;;;;;2.33;0.70;;;10.30;98.20;;;;;;4985358;28;20052;-79
2023/02/19 02:51:52;;;;;;;1.30;0.50;;;10.30;98.50;;;;;;5005337;28;20168;-78
2023/02/19 02:57:20;;;;;;;2.10;1.00;;;10.20;98.90;;;;;;4996081;28;20052;-80
2023/02/19 02:59:52;;;;;;;2.37;0.50;;;10.30;98.90;;;;;;4981803;28;20515;-79
2023/02/19 03:02:28;;;;;;;1.17;0.40;;;10.30;99.40;;;;;;4988526;28;20405;-79
2023/02/19 03:08:03;;;;;;;1.48;0.85;;;10.30;99.90;;;;;;5006962;28;20080;-80
2023/02/19 03:10:40;;;;;;;1.88;0.60;;;10.40;99.90;;;;;;4990057;28;20058;-78
2023/02/19 03:21:44;;;;;;;1.27;0.47;;;10.40;99.90;;;;;;4996511;28;20053;-79
2023/02/19 03:27:02;;;;;;;1.15;0.35;;;10.30;99.90;;;;;;4995460;28;20154;-79
2023/02/19 03:29:38;;;;;;;1.42;0.55;;;10.20;99.90;;;;;;5000358;28;20061;-79
2023/02/19 03:32:19;;;;;;;1.13;0.50;;;10.20;99.90;;;;;;4993771;28;20108;-81
2023/02/19 03:34:54;;;;;;;1.70;0.40;;;10.20;99.90;;;;;;4969920;28;20041;-80
2023/02/19 03:37:26;;;;;;;1.52;0.60;;;10.20;99.90;;;;;;5006698;28;21002;-80
2023/02/19 03:39:57;;;;;;;2.13;0.70;;;10.10;99.90;;;;;;4962138;28;20522;-80
2023/02/19 03:42:44;;;;;;;1.02;0.30;;;10.00;99.90;;;;;;4986973;28;20081;-80
2023/02/19 03:45:20;;;;;;;0.85;0.30;;;10.00;99.90;;;;;;5017778;28;20720;-80
2023/02/19 03:48:09;;;;;;;1.75;0.40;;;10.00;99.90;;;;;;4996375;28;20085;-80
2023/02/19 03:50:59;;;;;;;1.02;0.30;;;10.00;99.90;;;;;;5029941;28;20052;-80
2023/02/19 03:53:30;;;;;;;1.33;0.50;;;10.00;99.90;;;;;;4979612;28;20405;-80
2023/02/19 03:56:09;;;;;;;2.25;0.60;;;10.00;99.90;;;;;;5010576;28;21021;-80
2023/02/19 03:58:57;;;;;;;1.05;0.30;;;10.00;99.90;;;;;;5023851;28;20049;-80
2023/02/19 04:01:27;;;;;;;1.52;0.40;;;9.90;99.90;;;;;;5010758;28;20048;-80
2023/02/19 04:04:20;;;;;;;2.42;0.47;;;9.80;99.90;;;;;;4998321;28;20057;-80
2023/02/19 04:06:52;;;;;;;0.93;0.20;;;9.80;99.90;;;;;;5006537;28;22358;-80
2023/02/19 04:09:21;;;;;;;0.82;0.20;;;9.70;99.90;;;;;;4976509;28;20052;-80
2023/02/19 04:11:57;;;;;;;1.80;0.38;;;9.70;99.90;;;;;;5019201;28;20052;-81
2023/02/19 04:14:30;;;;;;;1.48;0.20;;;9.60;99.90;;;;;;4993915;28;20056;-80
2023/02/19 04:17:01;;;;;;;0.80;0.30;;;9.50;99.90;;;;;;4996370;28;20056;-81
2023/02/19 04:19:32;;;;;;;0.82;0.28;;;9.50;99.90;;;;;;5002476;28;20076;-80
2023/02/19 04:22:01;;;;;;;1.30;0.47;;;9.40;99.90;;;;;;4996971;28;20060;-81
2023/02/19 04:24:37;;;;;;;0.80;0.30;;;9.40;99.90;;;;;;4978862;28;20638;-81
2023/02/19 04:27:05;;;;;;;0.95;0.20;;;9.30;99.90;;;;;;4993479;28;20049;-80
2023/02/19 04:29:32;;;;;;;1.45;0.28;;;9.30;99.90;;;;;;5013355;28;20081;-80
2023/02/19 04:31:59;;;;;;;0.65;0.20;;;9.20;99.90;;;;;;4993807;28;20754;-80
2023/02/19 04:34:27;;;;;;;1.13;0.20;;;9.20;99.90;;;;;;4995221;28;20395;-80
2023/02/19 04:36:54;;;;;;;0.70;0.10;;;9.10;99.90;;;;;;4986765;28;20070;-80
2023/02/19 04:39:21;;;;;;;1.25;0.22;;;9.10;99.90;;;;;;5011516;28;20724;-81
2023/02/19 04:41:48;;;;;;;0.57;0.20;;;9.10;99.90;;;;;;4995359;28;20061;-80
2023/02/19 04:44:15;;;;;;;0.70;0.20;;;9.00;99.90;;;;;;4995817;28;20071;-81
2023/02/19 04:46:43;;;;;;;1.27;0.32;;;9.00;99.90;;;;;;5013127;28;20056;-80
2023/02/19 04:49:10;;;;;;;1.58;0.30;;;9.00;99.90;;;;;;4997218;28;20053;-80
2023/02/19 04:51:38;;;;;;;0.85;0.30;;;9.00;99.90;;;;;;5014823;28;20053;-80
2023/02/19 04:54:06;;;;;;;1.23;0.40;;;9.00;99.90;;;;;;5012960;28;20068;-80
2023/02/19 04:56:33;;;;;;;1.45;0.30;;;9.00;99.90;;;;;;5014832;28;20041;-80
2023/02/19 04:59:02;;;;;;;0.57;0.22;;;8.90;99.90;;;;;;4981613;28;20052;-80
2023/02/19 05:01:29;;;;;;;0.65;0.20;;;8.90;99.90;;;;;;4996328;28;20095;-80
2023/02/19 05:03:56;;;;;;;0.98;0.30;;;8.90;99.90;;;;;;5028917;28;20139;-81
2023/02/19 05:06:23;;;;;;;0.80;0.20;;;8.90;99.90;;;;;;5001046;28;20418;-80
2023/02/19 05:08:50;;;;;;;1.00;0.30;;;8.90;99.90;;;;;;5014862;28;20045;-79
2023/02/19 05:11:17;;;;;;;1.63;0.45;;;8.90;99.90;;;;;;5002572;28;20063;-79
2023/02/19 05:13:45;;;;;;;1.00;0.30;;;8.90;99.90;;;;;;4993964;28;20045;-80
2023/02/19 05:16:14;;;;;;;2.17;0.20;;;8.90;99.90;;;;;;4995341;28;20037;-79
2023/02/19 05:18:44;;;;;;;0.90;0.30;;;8.90;99.90;;;;;;5015009;28;20776;-79
2023/02/19 05:21:11;;;;;;;1.15;0.30;;;8.90;99.90;;;;;;5012144;28;20081;-80
2023/02/19 05:23:39;;;;;;;1.13;0.50;;;8.90;99.90;;;;;;5020586;28;20114;-79
2023/02/19 05:26:18;;;;;;;3.13;0.50;;;8.90;99.90;;;;;;5001888;28;20060;-79
2023/02/19 05:28:47;;;;;;;5.40;1.17;;;8.90;99.90;;;;;;5013343;28;20462;-80
2023/02/19 05:31:15;;;;;;;2.47;0.63;;;8.90;99.90;;;;;;4998016;28;20065;-80
2023/02/19 05:33:43;;;;;;;1.85;0.60;;;9.00;99.90;;;;;;5012553;28;20793;-79
2023/02/19 05:36:12;;;;;;;1.77;0.68;;;8.90;99.90;;;;;;4985775;28;20099;-79
2023/02/19 05:38:40;;;;;;;1.70;0.52;;;8.90;99.90;;;;;;5031462;28;20048;-79
2023/02/19 05:41:08;;;;;;;1.70;0.32;;;8.90;99.90;;;;;;5015606;28;20057;-79
2023/02/19 05:43:37;;;;;;;7.57;3.50;;;8.90;99.90;;;;;;4999563;28;20061;-79
2023/02/19 05:46:05;;;;;;;20.80;7.35;;;8.90;99.90;;;;;;5001731;28;20057;-79
2023/02/19 05:48:32;;;;;;;15.98;6.28;;;8.90;99.90;;;;;;4995716;28;20069;-79
2023/02/19 05:51:14;;;;;;;66.18;27.25;;;8.80;99.90;;;;;;5018965;28;20094;-79
2023/02/19 05:53:42;;;;;;;20.60;9.13;;;8.80;99.90;;;;;;4995250;28;20052;-79
2023/02/19 05:56:34;;;;;;;6.43;2.58;;;8.90;99.90;;;;;;4969537;28;20609;-79
2023/02/19 05:59:06;;;;;;;5.82;2.55;;;8.90;99.90;;;;;;4975332;28;20054;-80
2023/02/19 06:01:34;;;;;;;8.98;4.97;;;8.90;99.90;;;;;;5016599;28;20053;-79
2023/02/19 06:04:01;;;;;;;5.13;3.03;;;8.90;99.90;;;;;;5000134;28;20507;-79
2023/02/19 06:06:29;;;;;;;5.97;2.45;;;8.90;99.90;;;;;;5010671;28;20073;-79
2023/02/19 06:08:56;;;;;;;6.72;3.22;;;8.90;99.90;;;;;;5011121;28;20072;-79
2023/02/19 06:11:23;;;;;;;6.82;3.58;;;8.80;99.90;;;;;;4974657;28;21634;-80
2023/02/19 06:13:50;;;;;;;7.38;3.10;;;8.80;99.90;;;;;;4990351;28;20045;-80
2023/02/19 06:16:18;;;;;;;10.27;4.85;;;8.80;99.90;;;;;;5015083;28;20045;-79
2023/02/19 06:18:45;;;;;;;11.57;4.82;;;8.70;99.90;;;;;;4995881;28;20082;-79
2023/02/19 06:21:14;;;;;;;13.80;7.05;;;8.70;99.90;;;;;;5007854;28;20053;-79
2023/02/19 06:23:42;;;;;;;17.20;8.07;;;8.70;99.90;;;;;;4994855;28;20050;-80
2023/02/19 06:26:14;;;;;;;15.73;8.20;;;8.60;99.90;;;;;;4994657;28;20057;-79
2023/02/19 06:28:42;;;;;;;25.67;11.90;;;8.60;99.90;;;;;;4990097;28;20145;-79
2023/02/19 06:31:10;;;;;;;27.95;13.23;;;8.60;99.90;;;;;;4989854;28;20510;-80
2023/02/19 06:33:39;;;;;;;51.95;22.90;;;8.60;99.90;;;;;;5003731;28;22919;-79
2023/02/19 06:36:10;;;;;;;44.67;21.05;;;8.50;99.90;;;;;;5026729;28;22440;-80
2023/02/19 06:38:38;;;;;;;44.83;21.63;;;8.50;99.90;;;;;;5014712;28;20049;-79
2023/02/19 06:41:06;;;;;;;61.38;29.85;;;8.50;99.90;;;;;;5014425;28;20080;-79
2023/02/19 06:43:34;;;;;;;35.15;17.48;;;8.50;99.90;;;;;;5012104;28;20061;-80
2023/02/19 06:46:02;;;;;;;32.85;15.05;;;8.40;99.90;;;;;;5017891;28;20053;-79
2023/02/19 06:48:31;;;;;;;29.02;13.85;;;8.40;99.90;;;;;;4996927;28;20452;-79
2023/02/19 06:50:58;;;;;;;33.13;14.63;;;8.40;99.90;;;;;;4997182;28;22313;-79
2023/02/19 06:53:25;;;;;;;30.02;13.55;;;8.40;99.90;;;;;;5016189;28;20549;-78
2023/02/19 06:56:05;;;;;;;34.75;15.77;;;8.50;99.90;;;;;;4996266;28;20044;-80
2023/02/19 06:58:33;;;;;;;32.88;14.50;;;8.50;99.90;;;;;;4996526;28;20640;-79
2023/02/19 07:01:00;;;;;;;30.50;14.15;;;8.40;99.90;;;;;;5013165;28;20052;-80
2023/02/19 07:03:27;;;;;;;29.38;13.20;;;8.40;99.90;;;;;;4992258;28;20140;-80
2023/02/19 07:05:57;;;;;;;43.60;22.70;;;8.40;99.90;;;;;;5024194;28;20057;-80
2023/02/19 07:08:25;;;;;;;42.42;19.92;;;8.40;99.90;;;;;;5033457;28;20037;-80
2023/02/19 07:10:57;;;;;;;37.10;16.77;;;8.50;99.90;;;;;;5007270;28;20033;-79
2023/02/19 07:13:27;;;;;;;41.20;15.55;;;8.50;99.90;;;;;;5021125;28;20045;-80
2023/02/19 07:16:04;;;;;;;31.55;13.98;;;8.50;99.90;;;;;;5010923;28;20044;-81
2023/02/19 07:18:31;;;;;;;32.88;13.65;;;8.50;99.90;;;;;;5022948;28;20423;-79
2023/02/19 07:21:10;;;;;;;29.38;14.05;;;8.50;99.90;;;;;;4982392;28;20052;-80
2023/02/19 07:23:39;;;;;;;40.55;18.00;;;8.50;99.90;;;;;;5002534;28;20045;-79
2023/02/19 07:26:14;;;;;;;40.95;19.80;;;8.50;99.90;;;;;;4997300;28;20056;-80
2023/02/19 07:28:46;;;;;;;148.82;70.45;;;8.50;99.90;;;;;;5018403;28;20045;-79
2023/02/19 07:31:15;;;;;;;72.07;40.87;;;8.50;99.90;;;;;;4992900;28;20147;-79
2023/02/19 07:33:43;;;;;;;40.00;21.90;;;8.50;99.90;;;;;;5016913;28;20474;-80
2023/02/19 07:36:11;;;;;;;40.22;18.00;;;8.60;99.90;;;;;;5012782;28;20652;-79
2023/02/19 07:38:39;;;;;;;37.95;18.38;;;8.60;99.90;;;;;;5027513;28;20045;-80
2023/02/19 07:41:06;;;;;;;146.68;54.40;;;8.60;99.90;;;;;;4985079;28;20053;-79
2023/02/19 07:43:35;;;;;;;49.95;27.33;;;8.60;99.90;;;;;;4999266;28;20061;-79
2023/02/19 07:46:10;;;;;;;54.45;27.33;;;8.60;99.90;;;;;;5014886;28;20459;-80
2023/02/19 07:48:39;;;;;;;40.70;21.55;;;8.60;99.90;;;;;;4996865;28;20057;-79
2023/02/19 07:51:09;;;;;;;37.83;19.52;;;8.60;99.90;;;;;;5000778;28;20056;-79
2023/02/19 07:53:37;;;;;;;31.77;15.77;;;8.70;99.90;;;;;;4995703;28;20055;-79
2023/02/19 07:56:06;;;;;;;31.75;15.07;;;8.70;99.90;;;;;;5026958;28;20048;-81
2023/02/19 07:58:34;;;;;;;55.85;23.77;;;8.70;99.90;;;;;;5034837;28;20178;-81
2023/02/19 08:01:10;;;;;;;59.22;26.55;;;8.80;99.90;;;;;;5007095;28;20050;-81
2023/02/19 08:03:38;;;;;;;155.30;64.00;;;8.80;99.90;;;;;;5004488;28;20051;-81
2023/02/19 08:06:06;;;;;;;41.80;19.52;;;8.80;99.90;;;;;;5013391;28;20523;-80
2023/02/19 08:08:33;;;;;;;46.95;21.77;;;8.80;99.90;;;;;;5020673;28;20052;-81
2023/02/19 08:13:49;;;;;;;49.58;24.75;;;8.80;99.90;;;;;;5019962;28;20060;-81
2023/02/19 08:16:18;;;;;;;65.55;33.10;;;8.90;99.90;;;;;;5017941;28;20045;-81
2023/02/19 08:18:59;;;;;;;28.42;14.48;;;8.90;99.90;;;;;;5006375;28;20059;-81
2023/02/19 08:21:26;;;;;;;38.35;19.33;;;8.90;99.90;;;;;;5008907;28;20056;-82
2023/02/19 08:23:53;;;;;;;33.13;15.02;;;8.90;99.90;;;;;;4998971;28;20723;-81
2023/02/19 08:26:20;;;;;;;31.75;14.38;;;8.90;99.90;;;;;;5025538;28;20415;-82
2023/02/19 08:28:47;;;;;;;29.30;13.75;;;8.90;99.90;;;;;;5028327;28;20596;-82
2023/02/19 08:31:17;;;;;;;42.88;19.05;;;8.90;99.90;;;;;;5030971;28;20683;-82
2023/02/19 08:33:44;;;;;;;34.50;15.00;;;8.90;99.90;;;;;;4984858;28;20122;-82
2023/02/19 08:36:12;;;;;;;29.10;13.38;;;8.90;99.90;;;;;;4963963;28;20920;-82
2023/02/19 08:38:39;;;;;;;27.95;13.02;;;8.90;99.90;;;;;;4959299;28;20136;-82
2023/02/19 08:41:13;;;;;;;45.42;19.52;;;8.90;99.90;;;;;;5188320;22;20023;-81
2023/02/19 08:43:43;;;;;;;69.57;30.48;;;8.90;99.90;;;;;;5004256;28;20574;-81
2023/02/19 08:49:12;;;;;;;49.33;27.83;;;8.90;99.90;;;;;;5066114;28;20043;-82
2023/02/19 08:54:42;;;;;;;68.70;32.90;;;9.00;99.90;;;;;;4925234;23;20077;-81
2023/02/19 08:57:12;;;;;;;159.82;68.18;;;9.00;99.90;;;;;;4898110;29;20066;-81
2023/02/19 08:59:42;;;;;;;;;;;9.00;99.90;;;;;;4871507;29;22411;-81
2023/02/19 09:02:09;;;;;;;121.97;54.13;;;9.00;99.90;;;;;;4874271;29;20687;-81
2023/02/19 09:04:37;;;;;;;97.20;53.03;;;9.00;99.90;;;;;;4873308;29;22549;-81
2023/02/19 09:07:09;;;;;;;47.65;24.80;;;8.90;99.90;;;;;;4836131;29;20064;-81
2023/02/19 09:09:38;;;;;;;39.17;18.48;;;9.00;99.90;;;;;;4869086;29;20045;-81
2023/02/19 09:12:10;;;;;;;37.58;15.45;;;8.90;99.90;;;;;;4889994;29;22295;-81
2023/02/19 09:14:37;;;;;;;34.30;17.40;;;8.90;99.90;;;;;;4864615;29;20425;-82
2023/02/19 09:17:06;;;;;;;51.20;24.63;;;9.00;99.90;;;;;;4886720;29;20057;-82
2023/02/19 09:19:35;;;;;;;51.65;26.58;;;9.10;99.90;;;;;;4917638;23;20140;-82
2023/02/19 09:22:03;;;;;;;49.67;25.48;;;9.10;99.90;;;;;;4898186;29;20061;-80
2023/02/19 09:24:31;;;;;;;56.83;26.65;;;9.10;99.90;;;;;;4921229;28;20056;-82
2023/02/19 09:27:00;;;;;;;55.78;25.48;;;9.10;99.90;;;;;;4889706;29;20070;-82
2023/02/19 09:29:28;;;;;;;47.17;23.05;;;9.10;99.90;;;;;;5001807;23;20061;-81
2023/02/19 09:31:56;;;;;;;51.15;25.38;;;9.00;99.90;;;;;;4964627;24;20145;-82
2023/02/19 09:34:31;;;;;;;41.67;18.48;;;9.00;99.90;;;;;;4900382;24;20815;-82
2023/02/19 09:37:08;;;;;;;40.72;19.50;;;9.00;99.90;;;;;;5004144;24;20058;-81
2023/02/19 09:39:37;;;;;;;44.90;20.55;;;9.00;99.90;;;;;;4892393;29;20065;-81
2023/02/19 09:42:31;;;;;;;39.08;19.27;;;9.00;99.90;;;;;;4888669;29;20041;-81
2023/02/19 09:45:03;;;;;;;42.38;20.65;;;9.00;99.90;;;;;;4889246;29;20053;-81
2023/02/19 09:47:33;;;;;;;58.30;27.23;;;9.00;99.90;;;;;;4878041;29;20661;-82
2023/02/19 09:50:08;;;;;;;54.40;24.67;;;9.10;99.90;;;;;;4885842;29;20308;-82
2023/02/19 09:53:15;;;;;;;65.60;27.17;;;9.10;99.90;;;;;;4880355;29;20125;-82
2023/02/19 09:55:44;;;;;;;137.38;55.58;;;9.10;99.90;;;;;;4878317;29;20053;-81
2023/02/19 09:58:25;;;;;;;76.05;33.47;;;9.20;99.90;;;;;;4851230;29;20057;-81
2023/02/19 10:00:55;;;;;;;79.35;34.85;;;9.20;99.90;;;;;;4833574;29;20112;-82
2023/02/19 10:03:32;;;;;;;51.47;25.17;;;9.20;99.90;;;;;;4849308;29;20118;-82
2023/02/19 10:06:10;;;;;;;50.03;23.52;;;9.20;99.90;;;;;;4860247;29;20053;-83
2023/02/19 10:08:40;;;;;;;35.78;17.13;;;9.30;99.90;;;;;;4853271;29;20754;-81
2023/02/19 10:14:51;;;;;;;38.60;17.98;;;9.40;99.90;;;;;;5035049;24;20055;-82
2023/02/19 10:17:30;;;;;;;41.55;17.63;;;9.60;99.90;;;;;;4731027;30;20048;-82
2023/02/19 10:19:58;;;;;;;43.80;16.98;;;9.80;99.90;;;;;;4736196;30;20064;-82
2023/02/19 10:22:27;;;;;;;39.28;17.85;;;10.20;99.90;;;;;;4776764;24;20060;-81
2023/02/19 10:24:57;;;;;;;46.35;21.25;;;10.30;99.90;;;;;;4731312;30;20056;-81
2023/02/19 10:27:32;;;;;;;45.63;19.88;;;10.30;99.90;;;;;;4749611;30;20039;-81
2023/02/19 10:30:01;;;;;;;38.90;16.77;;;10.30;99.90;;;;;;4707756;30;20690;-81
2023/02/19 10:32:29;;;;;;;41.05;18.63;;;10.60;99.90;;;;;;4727872;30;20083;-81
2023/02/19 10:35:26;;;;;;;39.15;16.13;;;10.90;99.90;;;;;;4687560;30;20057;-81
2023/02/19 10:37:57;;;;;;;39.08;16.33;;;11.20;99.90;;;;;;4700884;30;20056;-81
2023/02/19 10:41:00;;;;;;;36.85;16.08;;;11.50;99.90;;;;;;4675938;30;20068;-81
2023/02/19 10:43:32;;;;;;;;;;;11.40;99.90;;;;;;4677813;30;20128;-81
2023/02/19 10:46:16;;;;;;;43.05;17.20;;;11.60;99.90;;;;;;4662090;30;19935;-82
2023/02/19 10:48:51;;;;;;;39.88;17.60;;;11.70;99.90;;;;;;4690580;30;20045;-82
2023/02/19 10:51:43;;;;;;;44.40;19.00;;;11.60;99.90;;;;;;4673854;30;20066;-81
2023/02/19 10:54:29;;;;;;;57.47;33.15;;;11.40;99.90;;;;;;4682821;30;20053;-81
2023/02/19 10:57:28;;;;;;;35.22;15.52;;;11.30;99.90;;;;;;4680830;30;20068;-82
2023/02/19 11:00:00;;;;;;;45.40;20.38;;;11.30;99.90;;;;;;4670559;30;20534;-81
2023/02/19 11:02:29;;;;;;;37.38;16.50;;;11.30;99.90;;;;;;4668645;30;20061;-81
2023/02/19 11:05:13;;;;;;;43.88;18.42;;;11.30;99.90;;;;;;4666382;30;20690;-81
2023/02/19 11:07:53;;;;;;;35.15;16.15;;;11.50;99.90;;;;;;4680859;30;20072;-81
2023/02/19 11:10:26;;;;;;;32.10;15.45;;;11.60;99.90;;;;;;4674267;30;20052;-79
2023/02/19 11:12:58;;;;;;;34.80;16.42;;;11.80;99.90;;;;;;4682051;30;20077;-81
2023/02/19 11:15:36;;;;;;;28.10;14.40;;;12.00;99.90;;;;;;4697792;30;20095;-82
2023/02/19 11:18:16;;;;;;;29.58;13.52;;;12.10;99.90;;;;;;4666948;30;20068;-80
2023/02/19 11:20:53;;;;;;;30.40;15.50;;;12.30;99.90;;;;;;4674262;30;20106;-82
2023/02/19 11:23:35;;;;;;;29.75;14.60;;;12.30;99.90;;;;;;4672170;30;20068;-80
2023/02/19 11:26:14;;;;;;;21.85;11.40;;;12.50;99.90;;;;;;4698373;30;20064;-79
2023/02/19 11:28:43;;;;;;;14.43;6.07;;;12.80;99.90;;;;;;4700258;30;20057;-79
2023/02/19 11:31:19;;;;;;;11.50;5.72;;;13.00;99.90;;;;;;4712375;30;20513;-80
2023/02/19 11:34:19;;;;;;;10.80;6.15;;;13.20;99.90;;;;;;4688446;30;20060;-80
2023/02/19 11:37:13;;;;;;;12.60;6.20;;;12.90;99.90;;;;;;4709913;30;20148;-80
2023/02/19 11:39:43;;;;;;;5.50;2.95;;;13.50;99.90;;;;;;4703653;30;20569;-78
2023/02/19 11:42:39;;;;;;;6.75;3.22;;;13.60;99.00;;;;;;4716303;30;20049;-79
2023/02/19 11:46:11;;;;;;;12.65;5.43;;;13.70;98.30;;;;;;4674196;30;20068;-81
2023/02/19 11:48:59;;;;;;;2.67;1.10;;;13.90;97.50;;;;;;4650482;30;20181;-79
2023/02/19 11:51:45;;;;;;;1.70;0.77;;;14.10;92.00;;;;;;4695763;30;20082;-80
2023/02/19 11:54:27;;;;;;;2.13;0.80;;;14.10;91.80;;;;;;4669233;30;20057;-79
2023/02/19 11:57:37;;;;;;;3.88;1.40;;;14.20;91.00;;;;;;4670088;30;20067;-79
2023/02/19 12:00:28;;;;;;;1.67;0.47;;;14.30;90.50;;;;;;4673341;30;20151;-78
2023/02/19 12:03:07;;;;;;;1.63;0.57;;;14.40;88.20;;;;;;4692578;30;20071;-80
2023/02/19 12:05:43;;;;;;;2.65;1.05;;;14.40;89.30;;;;;;4720429;30;20057;-78
2023/02/19 12:08:40;;;;;;;4.22;1.98;;;14.50;89.10;;;;;;4687863;30;20061;-79
2023/02/19 12:11:33;;;;;;;2.08;0.30;;;14.60;89.30;;;;;;4685940;30;20084;-77
2023/02/19 12:14:22;;;;;;;4.63;1.42;;;14.60;88.90;;;;;;4670718;30;20071;-78
2023/02/19 12:17:19;;;;;;;1.55;0.60;;;14.60;88.20;;;;;;4668902;30;20234;-81
2023/02/19 12:20:02;;;;;;;1.75;0.82;;;14.60;87.10;;;;;;4702455;30;20056;-79
2023/02/19 12:22:39;;;;;;;0.93;0.50;;;14.50;87.00;;;;;;4692519;30;20102;-76
2023/02/19 12:25:11;;;;;;;1.10;0.60;;;14.60;86.60;;;;;;4680537;30;20641;-81
2023/02/19 12:28:10;;;;;;;1.27;0.50;;;14.50;84.00;;;;;;4681095;30;20109;-79
2023/02/19 12:30:47;;;;;;;1.02;0.30;;;14.50;85.40;;;;;;4694065;30;20090;-78
2023/02/19 12:33:32;;;;;;;1.92;0.90;;;14.30;83.80;;;;;;4677472;30;20065;-78
2023/02/19 12:36:24;;;;;;;2.22;0.70;;;14.30;83.40;;;;;;4694009;30;20061;-79
2023/02/19 12:39:31;;;;;;;1.83;0.30;;;14.20;84.10;;;;;;4696036;30;20083;-78
2023/02/19 12:42:11;;;;;;;1.13;0.52;;;14.30;84.40;;;;;;4658781;30;20083;-77
2023/02/19 12:45:05;;;;;;;3.65;1.30;;;14.30;85.00;;;;;;4663208;30;20053;-78
2023/02/19 12:47:42;;;;;;;0.70;0.30;;;14.30;84.90;;;;;;4664876;30;20053;-78
2023/02/19 12:50:20;;;;;;;1.00;0.20;;;14.30;84.90;;;;;;4706667;30;20057;-79
2023/02/19 12:52:59;;;;;;;1.52;0.30;;;14.20;84.20;;;;;;4694280;30;22406;-78
2023/02/19 12:55:37;;;;;;;2.50;0.85;;;14.20;84.50;;;;;;4677935;30;20144;-79
2023/02/19 12:58:12;;;;;;;2.45;0.80;;;14.20;84.70;;;;;;4694524;30;20071;-77
2023/02/19 13:00:48;;;;;;;2.25;0.95;;;14.20;84.70;;;;;;4694177;30;20160;-79
2023/02/19 13:03:31;;;;;;;2.20;0.70;;;14.30;85.00;;;;;;4691161;30;20826;-78
2023/02/19 13:06:31;;;;;;;4.43;1.65;;;14.30;85.80;;;;;;4690712;30;20059;-82
2023/02/19 13:09:06;;;;;;;1.75;0.82;;;14.20;86.10;;;;;;4665319;30;20128;-79
2023/02/19 13:11:43;;;;;;;1.45;0.50;;;14.20;85.50;;;;;;4696972;30;20095;-79
2023/02/19 13:14:36;;;;;;;1.17;0.30;;;14.20;86.50;;;;;;4676925;30;20052;-80
2023/02/19 13:17:24;;;;;;;0.90;0.40;;;14.20;85.90;;;;;;4736637;30;20045;-77
2023/02/19 13:20:12;;;;;;;1.27;0.40;;;14.10;87.20;;;;;;4683554;30;20049;-77
2023/02/19 13:26:00;;;;;;;0.90;0.40;;;13.90;89.40;;;;;;4690076;30;20060;-77
2023/02/19 13:29:11;;;;;;;1.25;0.20;;;13.30;90.80;;;;;;4720604;30;20048;-79
2023/02/19 13:31:57;;;;;;;6.85;2.63;;;13.10;91.70;;;;;;4711310;30;20048;-81
2023/02/19 13:34:56;;;;;;;3.03;0.82;;;13.00;92.00;;;;;;4685108;30;20099;-79
2023/02/19 13:37:24;;;;;;;6.53;2.58;;;12.80;92.00;;;;;;4679048;30;20873;-79
2023/02/19 13:39:54;;;;;;;1.67;0.60;;;12.80;92.10;;;;;;4678678;30;20084;-78
2023/02/19 13:42:32;;;;;;;2.05;0.77;;;12.90;92.10;;;;;;4681025;30;20060;-79
2023/02/19 13:45:04;;;;;;;2.35;0.55;;;13.00;91.80;;;;;;4699408;30;20063;-80
2023/02/19 13:47:57;;;;;;;1.55;0.30;;;13.30;91.30;;;;;;4674549;30;20044;-80
2023/02/19 13:50:32;;;;;;;11.48;5.43;;;13.60;91.30;;;;;;4689987;30;20181;-78
2023/02/19 13:53:01;;;;;;;7.80;3.92;;;13.60;91.00;;;;;;4680085;30;20897;-80
2023/02/19 13:55:45;;;;;;;2.22;1.30;;;13.70;91.10;;;;;;4665358;30;20119;-80